Time;durP1;ratioP1;P1;durP2;ratioP2;P2;SDS_P1;SDS_P2;PMS_P1;PMS_P2;Temp;Humidity;BMP_temperature;BMP_pressure;BME280_temperature;BME280_humidity;BME280_pressure;Samples;Min_cycle;Max_cycle;Signal;HPM_P1;HPM_P2
2021/08/16 00:01:16;;;;;;;14.20;12.90;;;21.10;99.90;;;;;;5012232;28;20194;-65
2021/08/16 00:03:41;;;;;;;13.40;12.10;;;21.20;99.90;;;;;;5012586;28;20276;-65
2021/08/16 00:06:07;;;;;;;15.20;13.70;;;21.20;99.90;;;;;;5012628;28;20199;-65
2021/08/16 00:08:32;;;;;;;14.00;12.60;;;21.30;99.90;;;;;;5012117;28;20277;-64
2021/08/16 00:11:02;;;;;;;14.73;12.97;;;21.30;99.90;;;;;;5012326;28;20195;-65
2021/08/16 00:13:29;;;;;;;13.57;12.20;;;21.40;99.90;;;;;;5012115;28;20187;-64
2021/08/16 00:15:54;;;;;;;14.63;13.50;;;21.50;99.90;;;;;;5011584;28;20434;-65
2021/08/16 00:18:20;;;;;;;17.53;13.43;;;21.60;99.90;;;;;;5011694;28;20776;-64
2021/08/16 00:20:45;;;;;;;15.00;13.20;;;21.50;99.90;;;;;;4993605;28;20170;-64
2021/08/16 00:23:11;;;;;;;14.50;13.20;;;21.60;99.90;;;;;;5011934;28;20280;-64
2021/08/16 00:25:36;;;;;;;13.83;12.63;;;21.60;99.90;;;;;;5011958;28;20241;-64
2021/08/16 00:28:02;;;;;;;15.80;13.70;;;21.60;99.90;;;;;;5012127;28;20690;-64
2021/08/16 00:30:27;;;;;;;13.70;12.27;;;21.50;99.90;;;;;;5011449;28;20186;-65
2021/08/16 00:32:53;;;;;;;13.90;12.63;;;21.50;99.90;;;;;;5011843;28;20182;-64
2021/08/16 00:35:19;;;;;;;14.63;13.07;;;21.50;99.90;;;;;;5010966;28;20197;-64
2021/08/16 00:37:46;;;;;;;14.17;12.70;;;21.60;99.90;;;;;;5011986;28;20236;-64
2021/08/16 00:40:13;;;;;;;14.93;13.67;;;21.60;99.90;;;;;;5010672;28;20874;-65
2021/08/16 00:42:39;;;;;;;13.60;12.27;;;21.70;99.90;;;;;;5011798;28;20836;-64
2021/08/16 00:45:07;;;;;;;13.93;12.63;;;21.70;99.90;;;;;;5011629;28;20930;-64
2021/08/16 00:47:33;;;;;;;13.70;12.50;;;21.70;99.90;;;;;;5011544;28;20444;-64
2021/08/16 00:49:59;;;;;;;14.73;12.40;;;21.80;99.90;;;;;;5011505;28;20429;-65
2021/08/16 00:52:26;;;;;;;13.90;12.70;;;21.70;99.90;;;;;;5011541;28;20844;-65
2021/08/16 00:54:52;;;;;;;15.53;13.90;;;21.80;99.90;;;;;;5011730;28;20249;-65
2021/08/16 00:57:18;;;;;;;13.90;12.80;;;21.90;99.90;;;;;;5011667;28;20461;-65
2021/08/16 00:59:44;;;;;;;13.13;12.03;;;21.90;99.90;;;;;;5011375;28;20476;-65
2021/08/16 01:02:10;;;;;;;13.97;12.70;;;21.90;99.90;;;;;;5011706;28;20179;-65
2021/08/16 01:04:36;;;;;;;12.90;11.60;;;21.90;99.90;;;;;;5011870;28;20171;-65
2021/08/16 01:07:02;;;;;;;12.33;11.33;;;21.90;99.90;;;;;;5011792;28;20505;-65
2021/08/16 01:09:27;;;;;;;13.90;12.60;;;21.80;99.90;;;;;;5011437;28;20194;-65
2021/08/16 01:11:53;;;;;;;14.20;13.00;;;21.70;99.90;;;;;;5011377;28;20195;-65
2021/08/16 01:14:19;;;;;;;14.30;13.00;;;21.60;99.90;;;;;;5011821;28;20175;-64
2021/08/16 01:16:50;;;;;;;14.23;11.53;;;21.60;99.90;;;;;;5011366;28;20641;-64
2021/08/16 01:19:17;;;;;;;19.90;14.20;;;21.60;99.90;;;;;;5011597;28;20899;-65
2021/08/16 01:21:43;;;;;;;14.80;13.47;;;21.60;99.90;;;;;;5011213;28;20460;-63
2021/08/16 01:24:08;;;;;;;16.03;13.10;;;21.60;99.90;;;;;;5011797;28;20544;-65
2021/08/16 01:26:35;;;;;;;14.30;13.03;;;21.50;99.90;;;;;;5013955;28;20203;-65
2021/08/16 01:29:03;;;;;;;15.30;13.77;;;21.50;99.90;;;;;;5005162;28;20190;-65
2021/08/16 01:31:28;;;;;;;16.07;14.43;;;21.50;99.90;;;;;;4996558;28;20850;-65
2021/08/16 01:33:54;;;;;;;14.13;13.00;;;21.40;99.90;;;;;;5014715;28;20450;-65
2021/08/16 01:36:19;;;;;;;17.13;14.23;;;21.40;99.90;;;;;;5015056;28;20635;-65
2021/08/16 01:38:45;;;;;;;14.60;13.20;;;21.40;99.90;;;;;;5014924;28;20253;-65
2021/08/16 01:41:11;;;;;;;15.63;14.00;;;21.30;99.90;;;;;;5014653;28;20313;-64
2021/08/16 01:43:36;;;;;;;14.20;12.90;;;21.30;99.90;;;;;;5014614;28;20203;-65
2021/08/16 01:46:04;;;;;;;14.37;12.97;;;21.30;99.90;;;;;;5014746;28;20202;-65
2021/08/16 01:48:29;;;;;;;14.83;13.27;;;21.30;99.90;;;;;;5014183;28;20175;-64
2021/08/16 01:50:55;;;;;;;15.23;13.83;;;21.20;99.90;;;;;;5014666;28;20449;-65
2021/08/16 01:53:21;;;;;;;18.13;14.00;;;21.20;99.90;;;;;;5014746;28;20265;-65
2021/08/16 01:55:47;;;;;;;14.57;13.37;;;21.20;99.90;;;;;;4997180;28;20480;-64
2021/08/16 01:58:12;;;;;;;15.07;13.27;;;21.10;99.90;;;;;;5014362;28;20175;-65
2021/08/16 02:00:38;;;;;;;14.17;12.80;;;21.10;99.90;;;;;;5014199;28;20259;-65
2021/08/16 02:03:04;;;;;;;14.97;13.57;;;21.10;99.90;;;;;;5014512;28;20190;-65
2021/08/16 02:05:30;;;;;;;14.73;13.23;;;21.20;99.90;;;;;;5014352;28;20603;-65
2021/08/16 02:07:58;;;;;;;15.30;13.80;;;21.20;99.90;;;;;;5014329;28;20513;-64
2021/08/16 02:10:23;;;;;;;15.17;13.60;;;21.20;99.90;;;;;;5013766;28;20178;-64
2021/08/16 02:12:49;;;;;;;14.20;12.87;;;21.20;99.90;;;;;;5014182;28;20867;-64
2021/08/16 02:15:14;;;;;;;14.80;13.67;;;21.20;99.90;;;;;;4996491;28;20209;-64
2021/08/16 02:17:40;;;;;;;15.07;13.57;;;21.20;99.90;;;;;;5013930;28;20266;-65
2021/08/16 02:20:08;;;;;;;15.17;13.77;;;21.20;99.90;;;;;;5013960;28;20227;-64
2021/08/16 02:22:33;;;;;;;13.40;12.23;;;21.20;99.90;;;;;;5013747;28;20211;-64
2021/08/16 02:24:59;;;;;;;14.90;13.43;;;21.20;99.90;;;;;;5013934;28;20534;-64
2021/08/16 02:27:25;;;;;;;13.07;11.87;;;21.10;99.90;;;;;;5014051;28;20187;-63
2021/08/16 02:29:50;;;;;;;13.20;12.00;;;21.00;99.90;;;;;;5013810;28;20513;-64
2021/08/16 02:32:16;;;;;;;15.23;13.10;;;20.90;99.90;;;;;;5013390;28;20211;-64
2021/08/16 02:34:41;;;;;;;15.43;13.27;;;20.90;99.90;;;;;;5013782;28;20622;-64
2021/08/16 02:37:07;;;;;;;14.53;13.20;;;20.80;99.90;;;;;;4995298;28;20714;-64
2021/08/16 02:39:32;;;;;;;13.83;12.70;;;20.70;99.90;;;;;;5013245;28;20225;-64
2021/08/16 02:41:58;;;;;;;17.80;14.37;;;20.70;99.90;;;;;;5012330;28;20182;-65
2021/08/16 02:44:23;;;;;;;14.00;12.27;;;20.60;99.90;;;;;;5012420;28;20193;-65
2021/08/16 02:46:49;;;;;;;14.10;12.70;;;20.50;99.90;;;;;;5013527;28;20611;-64
2021/08/16 02:49:14;;;;;;;13.27;11.97;;;20.50;99.90;;;;;;5013191;28;20174;-64
2021/08/16 02:51:40;;;;;;;13.83;12.43;;;20.50;99.90;;;;;;5013566;28;20217;-64
2021/08/16 02:54:05;;;;;;;12.30;11.20;;;20.50;99.90;;;;;;5013327;28;20194;-64
2021/08/16 02:56:31;;;;;;;15.60;13.20;;;20.40;99.90;;;;;;5013227;28;20554;-64
2021/08/16 02:58:57;;;;;;;14.37;13.07;;;20.50;99.90;;;;;;5013211;28;20167;-64
2021/08/16 03:01:22;;;;;;;14.27;13.07;;;20.50;99.90;;;;;;5012946;28;20660;-64
2021/08/16 03:03:48;;;;;;;16.70;14.17;;;20.40;99.90;;;;;;5013098;28;20207;-64
2021/08/16 03:06:13;;;;;;;13.27;12.17;;;20.40;99.90;;;;;;5013199;28;20183;-64
2021/08/16 03:08:39;;;;;;;17.93;13.70;;;20.40;99.90;;;;;;5012927;28;20210;-64
2021/08/16 03:11:05;;;;;;;13.77;12.43;;;20.30;99.90;;;;;;5013365;28;20222;-64
2021/08/16 03:13:32;;;;;;;14.60;13.30;;;20.20;99.90;;;;;;4994595;28;20672;-63
2021/08/16 03:15:58;;;;;;;13.67;12.57;;;20.10;99.90;;;;;;4995024;28;20430;-64
2021/08/16 03:18:23;;;;;;;16.23;14.87;;;20.10;99.90;;;;;;5013060;28;20487;-64
2021/08/16 03:20:51;;;;;;;15.30;13.57;;;20.10;99.90;;;;;;5012347;28;20253;-63
2021/08/16 03:23:16;;;;;;;16.27;12.93;;;20.10;99.90;;;;;;5012486;28;20229;-64
2021/08/16 03:25:42;;;;;;;15.60;14.17;;;20.10;99.90;;;;;;5012662;28;20939;-64
2021/08/16 03:28:07;;;;;;;15.47;13.97;;;20.10;99.90;;;;;;5012887;28;20540;-64
2021/08/16 03:30:33;;;;;;;15.00;13.70;;;20.10;99.90;;;;;;5012668;28;20175;-64
2021/08/16 03:32:58;;;;;;;14.83;13.23;;;20.10;99.90;;;;;;5012270;28;20718;-64
2021/08/16 03:35:24;;;;;;;15.43;13.87;;;20.10;99.90;;;;;;5012431;28;20207;-64
2021/08/16 03:37:49;;;;;;;15.60;14.17;;;20.10;99.90;;;;;;5012441;28;20171;-64
2021/08/16 03:40:15;;;;;;;15.13;12.70;;;20.10;99.90;;;;;;5012539;28;20183;-64
2021/08/16 03:42:40;;;;;;;16.70;14.70;;;20.10;99.90;;;;;;5012106;28;20639;-65
2021/08/16 03:45:16;;;;;;;15.57;13.67;;;20.10;99.90;;;;;;5012778;28;20598;-64
2021/08/16 03:47:42;;;;;;;18.57;14.57;;;20.10;99.90;;;;;;5012644;28;20174;-64
2021/08/16 03:50:08;;;;;;;15.70;14.33;;;20.10;99.90;;;;;;5013079;28;20433;-64
2021/08/16 03:52:35;;;;;;;15.17;13.60;;;20.20;99.90;;;;;;5013130;28;20469;-64
2021/08/16 03:55:00;;;;;;;16.13;14.60;;;20.20;99.90;;;;;;5013688;28;20442;-64
2021/08/16 03:57:26;;;;;;;14.23;13.03;;;20.20;99.90;;;;;;5013709;28;20527;-64
2021/08/16 03:59:52;;;;;;;14.80;13.50;;;20.20;99.90;;;;;;5014170;28;20254;-64
2021/08/16 04:02:18;;;;;;;14.63;13.33;;;20.20;99.90;;;;;;5012887;28;20206;-64
2021/08/16 04:04:44;;;;;;;15.43;14.10;;;20.20;99.90;;;;;;5013886;28;20201;-64
2021/08/16 04:07:10;;;;;;;16.57;13.20;;;20.20;99.90;;;;;;5012995;28;20178;-64
2021/08/16 04:09:37;;;;;;;14.83;13.37;;;20.10;99.90;;;;;;5011965;28;20513;-64
2021/08/16 04:12:02;;;;;;;15.63;13.57;;;20.10;99.90;;;;;;5011449;28;21061;-65
2021/08/16 04:14:28;;;;;;;15.57;14.07;;;20.10;99.90;;;;;;5011664;28;20461;-64
2021/08/16 04:16:53;;;;;;;15.50;14.20;;;20.10;99.90;;;;;;5012031;28;20182;-65
2021/08/16 04:19:19;;;;;;;16.20;14.73;;;20.00;99.90;;;;;;5011986;28;20174;-65
2021/08/16 04:21:44;;;;;;;15.03;13.60;;;20.00;99.90;;;;;;5011908;28;20555;-64
2021/08/16 04:24:10;;;;;;;16.60;15.20;;;20.10;99.90;;;;;;5012482;28;20254;-64
2021/08/16 04:26:36;;;;;;;16.20;14.67;;;20.00;99.90;;;;;;5011819;28;20282;-64
2021/08/16 04:29:01;;;;;;;15.37;13.87;;;20.00;99.90;;;;;;5011840;28;20206;-64
2021/08/16 04:31:27;;;;;;;14.40;13.07;;;19.90;99.90;;;;;;5011503;28;20210;-64
2021/08/16 04:33:52;;;;;;;14.13;12.90;;;19.90;99.90;;;;;;5011668;28;20253;-64
2021/08/16 04:36:18;;;;;;;17.00;15.20;;;19.90;99.90;;;;;;5011983;28;20190;-64
2021/08/16 04:38:43;;;;;;;16.77;14.17;;;19.90;99.90;;;;;;5011876;28;20167;-62
2021/08/16 04:41:09;;;;;;;16.33;14.70;;;20.00;99.90;;;;;;5011606;28;20214;-63
2021/08/16 04:43:34;;;;;;;14.07;12.87;;;20.00;99.90;;;;;;5011349;28;20647;-63
2021/08/16 04:46:00;;;;;;;14.60;13.10;;;20.10;99.90;;;;;;5011819;28;20214;-62
2021/08/16 04:48:25;;;;;;;13.67;12.27;;;20.10;99.90;;;;;;5011938;28;20554;-66
2021/08/16 04:50:51;;;;;;;14.70;12.90;;;20.20;99.90;;;;;;5011206;28;20268;-65
2021/08/16 04:53:17;;;;;;;12.20;11.10;;;20.20;99.90;;;;;;5011937;28;20206;-64
2021/08/16 04:55:43;;;;;;;13.67;12.07;;;20.30;99.90;;;;;;5011280;28;20186;-64
2021/08/16 04:58:08;;;;;;;12.60;11.53;;;20.40;99.90;;;;;;5011675;28;20429;-64
2021/08/16 05:00:34;;;;;;;13.00;11.80;;;20.40;99.90;;;;;;5009833;28;20194;-65
2021/08/16 05:03:01;;;;;;;12.60;11.43;;;20.40;99.90;;;;;;5015270;28;20199;-65
2021/08/16 05:05:29;;;;;;;11.83;10.63;;;20.40;99.90;;;;;;5015025;28;20205;-64
2021/08/16 05:07:56;;;;;;;11.30;10.30;;;20.60;99.90;;;;;;5015474;28;20434;-65
2021/08/16 05:10:23;;;;;;;11.43;10.30;;;20.70;99.90;;;;;;4989834;28;20800;-64
2021/08/16 05:12:51;;;;;;;12.47;11.20;;;20.80;99.90;;;;;;5012790;28;20473;-64
2021/08/16 05:15:17;;;;;;;10.73;9.80;;;20.90;99.90;;;;;;5011171;28;20430;-64
2021/08/16 05:17:44;;;;;;;11.43;9.40;;;20.80;99.90;;;;;;4995797;28;20450;-64
2021/08/16 05:20:10;;;;;;;10.77;9.03;;;20.80;99.90;;;;;;4995447;28;20479;-65
2021/08/16 05:22:39;;;;;;;10.33;9.30;;;20.80;99.90;;;;;;4977970;28;20536;-64
2021/08/16 05:25:05;;;;;;;10.60;9.43;;;20.80;99.90;;;;;;4995565;28;20426;-64
2021/08/16 05:27:31;;;;;;;11.93;10.70;;;20.80;99.90;;;;;;5000258;28;20433;-64
2021/08/16 05:29:56;;;;;;;10.30;9.23;;;20.70;99.90;;;;;;5014796;28;20420;-65
2021/08/16 05:32:22;;;;;;;10.70;8.80;;;20.70;99.90;;;;;;5015045;28;20237;-64
2021/08/16 05:34:48;;;;;;;11.77;9.07;;;20.60;99.90;;;;;;5015043;28;20516;-64
2021/08/16 05:37:13;;;;;;;9.57;8.67;;;20.50;99.90;;;;;;5014876;28;20167;-64
2021/08/16 05:39:39;;;;;;;10.43;8.77;;;20.50;99.90;;;;;;5014729;28;20175;-65
2021/08/16 05:42:05;;;;;;;10.60;9.60;;;20.60;99.90;;;;;;5014894;28;20568;-64
2021/08/16 05:44:30;;;;;;;9.37;8.50;;;20.70;99.90;;;;;;5014798;28;20183;-64
2021/08/16 05:46:56;;;;;;;11.80;8.63;;;20.80;99.90;;;;;;5006421;28;20184;-65
2021/08/16 05:49:22;;;;;;;12.03;9.17;;;20.90;99.90;;;;;;4994886;28;20634;-66
2021/08/16 05:51:48;;;;;;;10.90;9.37;;;21.00;99.90;;;;;;4995055;28;20211;-67
2021/08/16 05:54:13;;;;;;;9.97;8.97;;;21.10;99.90;;;;;;4995022;28;20441;-65
2021/08/16 05:56:39;;;;;;;9.17;8.23;;;21.30;99.90;;;;;;5005006;28;20259;-66
2021/08/16 05:59:05;;;;;;;10.73;8.33;;;21.60;99.90;;;;;;5004766;28;20254;-66
2021/08/16 06:01:33;;;;;;;10.80;8.10;;;21.70;99.90;;;;;;5011223;28;20192;-64
2021/08/16 06:03:59;;;;;;;8.90;7.60;;;21.70;99.90;;;;;;5014284;28;20252;-66
2021/08/16 06:06:25;;;;;;;8.53;7.83;;;21.70;99.90;;;;;;5014055;28;20515;-65
2021/08/16 06:08:50;;;;;;;7.60;6.90;;;21.70;99.90;;;;;;5011203;28;20434;-66
2021/08/16 06:11:16;;;;;;;8.73;7.73;;;21.60;99.90;;;;;;4982219;28;20697;-65
2021/08/16 06:13:41;;;;;;;9.10;8.20;;;21.40;99.90;;;;;;4992974;28;20241;-65
2021/08/16 06:16:07;;;;;;;8.10;7.40;;;21.30;99.90;;;;;;4993989;28;20237;-66
2021/08/16 06:18:33;;;;;;;9.20;7.67;;;21.20;99.90;;;;;;4994317;28;20180;-66
2021/08/16 06:20:58;;;;;;;10.07;7.63;;;21.30;99.90;;;;;;5009004;28;20182;-66
2021/08/16 06:23:24;;;;;;;8.70;6.90;;;21.40;99.90;;;;;;5013925;28;20210;-65
2021/08/16 06:25:49;;;;;;;13.43;8.53;;;21.30;99.90;;;;;;5014126;28;20210;-66
2021/08/16 06:28:15;;;;;;;9.10;7.83;;;21.10;99.90;;;;;;5013945;28;20179;-66
2021/08/16 06:30:40;;;;;;;12.40;7.50;;;21.00;99.90;;;;;;5013702;28;20421;-66
2021/08/16 06:33:06;;;;;;;8.17;7.07;;;21.20;99.90;;;;;;4995996;28;20202;-66
2021/08/16 06:35:31;;;;;;;10.20;7.63;;;21.20;99.90;;;;;;5013484;28;20179;-65
2021/08/16 06:37:59;;;;;;;7.53;6.90;;;21.40;99.90;;;;;;5014366;28;20569;-67
2021/08/16 06:40:25;;;;;;;8.10;7.20;;;21.50;99.90;;;;;;5013829;28;20167;-66
2021/08/16 06:42:50;;;;;;;7.77;6.97;;;21.40;99.90;;;;;;5012876;28;20477;-66
2021/08/16 06:45:16;;;;;;;7.33;6.50;;;21.60;99.90;;;;;;5013753;28;20171;-65
2021/08/16 06:47:41;;;;;;;8.23;6.77;;;21.70;99.90;;;;;;5013761;28;20261;-65
2021/08/16 06:50:07;;;;;;;7.87;7.10;;;21.70;99.90;;;;;;5000671;28;20230;-64
2021/08/16 06:52:33;;;;;;;6.83;6.23;;;21.70;99.90;;;;;;5013266;28;20206;-65
2021/08/16 06:54:58;;;;;;;7.10;6.40;;;21.80;99.90;;;;;;5013657;28;20507;-65
2021/08/16 06:57:27;;;;;;;8.70;5.80;;;21.60;99.90;;;;;;5001463;28;20167;-65
2021/08/16 06:59:53;;;;;;;6.40;5.80;;;21.60;99.90;;;;;;4993913;28;20637;-65
2021/08/16 07:02:18;;;;;;;6.73;5.67;;;21.70;99.90;;;;;;4994040;28;20485;-64
2021/08/16 07:04:44;;;;;;;6.17;5.57;;;21.80;99.90;;;;;;5007389;28;20438;-64
2021/08/16 07:07:09;;;;;;;5.90;5.37;;;21.90;99.90;;;;;;5012655;28;20663;-65
2021/08/16 07:09:35;;;;;;;5.57;5.10;;;21.80;99.90;;;;;;5012181;28;20266;-64
2021/08/16 07:12:00;;;;;;;10.43;5.40;;;21.60;99.90;;;;;;4993470;28;20203;-64
2021/08/16 07:14:26;;;;;;;8.07;5.30;;;21.50;99.90;;;;;;4993331;28;20637;-64
2021/08/16 07:16:51;;;;;;;5.53;5.03;;;21.60;99.90;;;;;;4993584;28;20687;-64
2021/08/16 07:19:17;;;;;;;6.17;5.57;;;21.90;99.90;;;;;;4992929;28;20171;-64
2021/08/16 07:21:45;;;;;;;6.93;4.90;;;21.90;99.90;;;;;;4993480;28;20247;-64
2021/08/16 07:24:11;;;;;;;6.33;5.30;;;21.70;99.90;;;;;;4993064;28;20583;-63
2021/08/16 07:26:36;;;;;;;5.63;4.73;;;21.70;99.90;;;;;;4993574;28;20427;-64
2021/08/16 07:29:02;;;;;;;5.83;5.33;;;21.60;99.90;;;;;;4975580;28;20230;-65
2021/08/16 07:31:27;;;;;;;9.63;4.93;;;21.80;99.90;;;;;;4993346;28;20554;-64
2021/08/16 07:33:53;;;;;;;6.73;5.87;;;22.10;99.90;;;;;;4993196;28;20187;-64
2021/08/16 07:36:18;;;;;;;5.23;4.73;;;22.40;99.90;;;;;;4997141;28;20194;-64
2021/08/16 07:38:44;;;;;;;4.50;4.07;;;22.40;99.90;;;;;;5012523;28;20179;-64
2021/08/16 07:41:10;;;;;;;4.27;3.87;;;22.30;99.90;;;;;;5012757;28;20171;-64
2021/08/16 07:43:35;;;;;;;6.23;5.17;;;22.20;99.90;;;;;;5012230;28;20198;-63
2021/08/16 07:46:01;;;;;;;5.10;4.60;;;22.10;99.90;;;;;;5012443;28;20256;-64
2021/08/16 07:48:26;;;;;;;5.47;5.00;;;22.20;99.90;;;;;;5012354;28;20241;-64
2021/08/16 07:50:52;;;;;;;5.00;4.50;;;22.30;99.90;;;;;;5012468;28;20236;-64
2021/08/16 07:53:17;;;;;;;5.77;4.50;;;22.40;99.90;;;;;;5012646;28;20221;-64
2021/08/16 07:55:44;;;;;;;7.77;4.40;;;22.60;99.90;;;;;;5012668;28;20216;-63
2021/08/16 07:58:09;;;;;;;6.00;5.47;;;22.70;99.90;;;;;;5002406;28;20250;-63
2021/08/16 08:00:35;;;;;;;5.87;4.53;;;22.80;99.90;;;;;;4992305;28;20518;-64
2021/08/16 08:03:00;;;;;;;9.77;5.20;;;22.90;99.90;;;;;;4992803;28;20195;-64
2021/08/16 08:05:26;;;;;;;9.17;5.23;;;22.90;99.90;;;;;;5012093;28;20182;-64
2021/08/16 08:07:52;;;;;;;6.43;4.73;;;22.80;99.90;;;;;;5012378;28;20546;-64
2021/08/16 08:10:19;;;;;;;6.80;4.67;;;23.00;99.90;;;;;;5005641;28;20176;-64
2021/08/16 08:12:46;;;;;;;5.30;4.47;;;22.90;99.90;;;;;;4991597;28;21055;-64
2021/08/16 08:15:12;;;;;;;7.43;5.10;;;22.90;99.90;;;;;;4992638;28;20793;-64
2021/08/16 08:17:38;;;;;;;5.93;4.40;;;23.10;99.90;;;;;;5010300;28;20413;-64
2021/08/16 08:20:06;;;;;;;5.73;4.87;;;23.20;99.90;;;;;;4992087;28;20429;-64
2021/08/16 08:22:32;;;;;;;6.30;4.73;;;23.30;99.90;;;;;;4992265;28;20747;-64
2021/08/16 08:24:57;;;;;;;6.07;5.47;;;23.50;99.90;;;;;;4992515;28;20501;-64
2021/08/16 08:27:23;;;;;;;11.87;5.17;;;23.60;99.90;;;;;;4992431;28;20172;-65
2021/08/16 08:29:49;;;;;;;5.33;4.83;;;23.90;99.90;;;;;;4992194;28;20178;-63
2021/08/16 08:32:15;;;;;;;6.17;4.70;;;24.10;99.90;;;;;;5000842;28;20277;-64
2021/08/16 08:34:40;;;;;;;5.87;4.83;;;24.50;99.90;;;;;;5012390;28;20584;-64
2021/08/16 08:37:15;;;;;;;5.43;4.93;;;25.30;99.90;;;;;;5015418;28;20429;-65
2021/08/16 08:39:42;;;;;;;5.20;4.67;;;25.80;99.90;;;;;;5015708;28;20167;-64
2021/08/16 08:42:11;;;;;;;6.93;5.10;;;25.80;99.90;;;;;;4996359;28;20463;-64
2021/08/16 08:44:37;;;;;;;5.43;4.53;;;25.70;99.90;;;;;;4996504;28;20855;-65
2021/08/16 08:47:03;;;;;;;6.23;4.47;;;25.60;99.90;;;;;;4996182;28;20461;-65
2021/08/16 08:49:29;;;;;;;5.60;5.00;;;25.70;99.90;;;;;;5006897;28;20473;-65
2021/08/16 08:51:55;;;;;;;7.17;5.60;;;25.90;99.90;;;;;;5015713;28;20464;-64
2021/08/16 08:54:20;;;;;;;6.40;5.50;;;25.80;99.90;;;;;;5015853;28;20185;-64
2021/08/16 08:56:47;;;;;;;6.30;4.60;;;25.80;99.90;;;;;;5015786;28;20194;-65
2021/08/16 08:59:12;;;;;;;5.53;5.03;;;26.00;99.90;;;;;;5015378;28;20171;-64
2021/08/16 09:01:53;;;;;;;5.03;4.53;;;26.80;99.90;;;;;;5015105;28;20444;-64
2021/08/16 09:04:19;;;;;;;5.90;5.40;;;26.80;99.90;;;;;;5015386;28;20190;-64
2021/08/16 09:06:45;;;;;;;5.60;4.97;;;26.20;99.90;;;;;;5014361;28;20935;-64
2021/08/16 09:09:11;;;;;;;6.80;5.13;;;25.60;99.90;;;;;;5015219;28;20257;-64
2021/08/16 09:11:37;;;;;;;7.00;4.90;;;24.80;99.90;;;;;;5015282;28;20531;-63
2021/08/16 09:14:07;;;;;;;11.13;8.70;;;24.40;99.90;;;;;;4993585;28;20786;-63
2021/08/16 09:16:36;;;;;;;7.30;5.60;;;25.10;99.90;;;;;;4995823;28;20414;-65
2021/08/16 09:19:18;;;;;;;8.00;5.43;;;25.00;99.90;;;;;;4995497;28;20872;-68
2021/08/16 09:21:53;;;;;;;7.50;5.83;;;25.80;99.90;;;;;;4997770;28;20473;-64
2021/08/16 09:24:24;;;;;;;5.43;4.93;;;26.00;99.90;;;;;;5007649;28;20444;-64
2021/08/16 09:26:49;;;;;;;9.33;5.47;;;25.80;99.90;;;;;;5013884;28;20425;-64
2021/08/16 09:29:20;;;;;;;6.87;5.33;;;25.90;99.90;;;;;;5014836;28;20410;-64
2021/08/16 09:32:01;;;;;;;7.77;5.67;;;25.60;99.90;;;;;;5014463;28;20268;-64
2021/08/16 09:34:46;;;;;;;5.60;5.10;;;25.80;99.90;;;;;;5014868;28;20428;-64
2021/08/16 09:37:18;;;;;;;6.73;5.40;;;26.50;99.90;;;;;;5014720;28;20416;-64
2021/08/16 09:39:44;;;;;;;6.20;4.77;;;26.60;99.90;;;;;;5014391;28;20410;-64
2021/08/16 09:42:10;;;;;;;5.80;5.20;;;25.80;99.90;;;;;;5014652;28;20956;-65
2021/08/16 09:44:48;;;;;;;7.67;5.67;;;25.20;99.90;;;;;;5014948;28;20502;-64
2021/08/16 09:47:13;;;;;;;10.00;5.03;;;25.00;99.90;;;;;;5014636;28;20452;-64
2021/08/16 09:49:39;;;;;;;8.47;4.70;;;24.80;99.90;;;;;;5009652;28;20454;-64
2021/08/16 09:52:08;;;;;;;5.30;4.73;;;24.60;99.90;;;;;;5013843;28;20202;-65
2021/08/16 09:54:35;;;;;;;6.90;5.50;;;24.60;99.90;;;;;;5014924;28;20246;-65
2021/08/16 09:57:02;;;;;;;6.20;4.47;;;24.60;99.90;;;;;;5014613;28;20425;-64
2021/08/16 09:59:29;;;;;;;5.93;4.80;;;24.70;99.90;;;;;;5014316;28;20825;-65
2021/08/16 10:01:55;;;;;;;5.50;4.80;;;25.00;99.90;;;;;;5014787;28;20426;-64
2021/08/16 10:04:20;;;;;;;8.27;4.60;;;25.30;99.90;;;;;;5014454;28;20433;-65
2021/08/16 10:06:48;;;;;;;5.40;4.33;;;25.40;99.90;;;;;;5014436;28;20249;-65
2021/08/16 10:09:16;;;;;;;6.00;4.80;;;26.60;99.90;;;;;;5013865;28;20183;-65
2021/08/16 10:11:42;;;;;;;4.90;4.30;;;28.70;98.20;;;;;;4996293;28;20454;-65
2021/08/16 10:14:08;;;;;;;8.40;5.13;;;28.70;96.70;;;;;;4994593;28;20817;-66
2021/08/16 10:16:39;;;;;;;7.50;4.90;;;28.90;96.90;;;;;;4977000;28;20559;-67
2021/08/16 10:19:11;;;;;;;5.50;4.83;;;28.60;96.50;;;;;;5003255;28;20205;-68
2021/08/16 10:21:38;;;;;;;9.03;5.33;;;27.90;97.00;;;;;;5014170;28;20467;-68
2021/08/16 10:24:19;;;;;;;6.10;4.60;;;26.80;98.50;;;;;;5010477;28;20478;-68
2021/08/16 10:26:55;;;;;;;7.80;6.40;;;26.10;99.50;;;;;;5011080;28;20442;-68
2021/08/16 10:29:21;;;;;;;9.53;7.70;;;25.70;99.80;;;;;;5013702;28;20441;-67
2021/08/16 10:31:51;;;;;;;7.70;5.07;;;25.40;99.90;;;;;;5002502;28;20504;-68
2021/08/16 10:34:33;;;;;;;6.70;4.80;;;25.50;99.80;;;;;;5013982;28;20198;-67
2021/08/16 10:37:08;;;;;;;5.67;4.73;;;25.30;99.90;;;;;;5001346;28;20800;-68
2021/08/16 10:39:34;;;;;;;5.90;5.37;;;25.40;99.90;;;;;;4993948;28;20843;-68
2021/08/16 10:42:16;;;;;;;7.33;4.03;;;25.60;99.80;;;;;;5008096;28;20441;-62
2021/08/16 10:44:46;;;;;;;4.93;4.43;;;25.70;99.90;;;;;;5013748;28;20185;-62
2021/08/16 10:47:24;;;;;;;5.33;4.00;;;26.20;98.70;;;;;;5013763;28;20414;-62
2021/08/16 10:50:02;;;;;;;5.37;4.63;;;27.70;97.30;;;;;;5007627;28;20433;-61
2021/08/16 10:52:28;;;;;;;7.70;4.93;;;28.60;95.60;;;;;;5013457;28;20465;-62
2021/08/16 10:54:53;;;;;;;4.97;4.27;;;28.70;95.10;;;;;;5013489;28;20424;-62
2021/08/16 10:57:20;;;;;;;5.90;4.77;;;28.80;94.30;;;;;;5001551;28;20184;-61
2021/08/16 10:59:45;;;;;;;5.87;4.93;;;28.80;95.00;;;;;;4993177;28;20555;-62
2021/08/16 11:02:11;;;;;;;7.60;4.53;;;28.50;94.20;;;;;;5006676;28;20460;-63
2021/08/16 11:04:37;;;;;;;6.03;4.60;;;28.70;94.60;;;;;;5012908;28;20710;-62
2021/08/16 11:07:12;;;;;;;5.33;4.30;;;29.90;93.00;;;;;;5013277;28;20179;-62
2021/08/16 11:09:39;;;;;;;6.30;4.23;;;30.60;91.70;;;;;;5012940;28;20823;-62
2021/08/16 11:12:09;;;;;;;4.70;4.00;;;31.30;91.10;;;;;;5013057;28;20461;-60
2021/08/16 11:14:40;;;;;;;4.87;4.37;;;32.40;85.60;;;;;;5005088;28;20854;-62
2021/08/16 11:17:07;;;;;;;5.43;4.13;;;32.40;82.10;;;;;;4993429;28;20789;-63
2021/08/16 11:19:47;;;;;;;7.20;4.77;;;32.70;80.30;;;;;;4993191;28;20970;-62
2021/08/16 11:22:13;;;;;;;6.57;4.87;;;33.00;77.10;;;;;;4993361;28;20994;-62
2021/08/16 11:24:41;;;;;;;4.67;4.27;;;32.50;77.70;;;;;;5007252;28;20434;-61
2021/08/16 11:27:09;;;;;;;6.00;4.30;;;31.60;78.70;;;;;;5012967;28;20417;-62
2021/08/16 11:29:36;;;;;;;4.60;4.20;;;29.60;82.40;;;;;;5012733;28;20433;-62
2021/08/16 11:32:04;;;;;;;5.40;4.90;;;27.90;86.20;;;;;;5012876;28;20492;-59
2021/08/16 11:34:43;;;;;;;6.80;4.63;;;26.80;90.10;;;;;;5012811;28;20422;-62
2021/08/16 11:37:11;;;;;;;7.20;4.77;;;26.50;91.40;;;;;;5012958;28;20774;-62
2021/08/16 11:39:36;;;;;;;5.33;4.17;;;27.10;91.60;;;;;;5012567;28;20429;-59
2021/08/16 11:42:04;;;;;;;5.30;4.80;;;28.10;90.00;;;;;;5011281;28;20476;-62
2021/08/16 11:44:32;;;;;;;4.50;3.87;;;29.50;87.50;;;;;;5012662;28;20171;-62
2021/08/16 11:47:02;;;;;;;7.40;4.20;;;30.50;85.00;;;;;;5012814;28;20418;-60
2021/08/16 11:49:34;;;;;;;4.60;4.20;;;31.40;81.00;;;;;;5012308;28;20942;-61
2021/08/16 11:52:01;;;;;;;4.33;3.77;;;30.80;81.30;;;;;;5012353;28;20457;-59
2021/08/16 11:54:31;;;;;;;4.30;3.90;;;29.40;83.10;;;;;;5012017;28;20433;-59
2021/08/16 11:56:59;;;;;;;5.27;4.30;;;29.30;84.10;;;;;;5012375;28;20789;-62
2021/08/16 11:59:26;;;;;;;4.37;3.97;;;29.60;82.50;;;;;;5012158;28;20413;-59
2021/08/16 12:01:54;;;;;;;4.83;4.37;;;29.20;82.60;;;;;;5012366;28;20422;-59
2021/08/16 12:04:21;;;;;;;4.10;3.70;;;28.90;83.10;;;;;;5012383;28;20448;-58
2021/08/16 12:06:49;;;;;;;5.70;4.00;;;28.50;86.30;;;;;;5001889;28;20434;-60
2021/08/16 12:09:15;;;;;;;6.43;5.03;;;28.30;84.00;;;;;;4992367;28;20418;-60
2021/08/16 12:11:40;;;;;;;6.43;4.00;;;27.30;85.30;;;;;;5009584;28;20449;-58
2021/08/16 12:14:06;;;;;;;6.23;4.37;;;26.70;86.10;;;;;;5012273;28;20253;-60
2021/08/16 12:16:36;;;;;;;4.23;3.93;;;26.60;85.70;;;;;;5011748;28;20175;-60
2021/08/16 12:19:04;;;;;;;4.63;4.10;;;25.90;86.10;;;;;;5011827;28;20171;-60
2021/08/16 12:21:29;;;;;;;5.73;4.10;;;25.80;87.70;;;;;;5012007;28;20491;-56
2021/08/16 12:24:05;;;;;;;7.83;4.40;;;27.00;86.10;;;;;;5011727;28;20556;-59
2021/08/16 12:26:36;;;;;;;5.00;3.83;;;30.40;81.30;;;;;;5012214;28;20551;-63
2021/08/16 12:29:14;;;;;;;4.80;4.30;;;32.70;74.70;;;;;;5011848;28;20940;-62
2021/08/16 12:31:40;;;;;;;6.83;4.63;;;33.50;70.40;;;;;;5012047;28;20825;-62
2021/08/16 12:34:07;;;;;;;5.70;3.87;;;33.50;67.30;;;;;;5010034;28;20446;-63
2021/08/16 12:36:37;;;;;;;6.33;5.70;;;32.10;67.40;;;;;;5001127;28;20308;-64